Time;durP1;ratioP1;P1;durP2;ratioP2;P2;SDS_P1;SDS_P2;PMS_P1;PMS_P2;Temp;Humidity;BMP_temperature;BMP_pressure;BME280_temperature;BME280_humidity;BME280_pressure;Samples;Min_cycle;Max_cycle;Signal;HPM_P1;HPM_P2
2023/03/22 00:00:29;;;;;;;29.57;22.63;;;11.20;1.00;;;;;;4992094;28;20496;-78
2023/03/22 00:02:57;;;;;;;29.00;22.67;;;11.20;1.00;;;;;;5005659;28;20459;-79
2023/03/22 00:05:26;;;;;;;28.30;22.03;;;11.10;1.00;;;;;;5005243;28;20482;-80
2023/03/22 00:07:58;;;;;;;31.37;22.43;;;11.10;1.00;;;;;;5009239;28;20594;-78
2023/03/22 00:10:27;;;;;;;25.53;21.30;;;10.90;1.00;;;;;;5008710;28;20506;-79
2023/03/22 00:12:56;;;;;;;26.30;21.70;;;11.00;1.00;;;;;;5002089;28;20542;-80
2023/03/22 00:15:23;;;;;;;30.33;22.50;;;11.00;1.00;;;;;;5008617;28;20537;-79
2023/03/22 00:17:54;;;;;;;28.60;22.60;;;11.00;1.00;;;;;;5006299;28;21006;-79
2023/03/22 00:20:22;;;;;;;26.93;21.83;;;10.90;1.00;;;;;;5004469;28;20486;-78
2023/03/22 00:22:51;;;;;;;28.80;21.00;;;10.90;1.00;;;;;;5014943;28;20546;-79
2023/03/22 00:25:23;;;;;;;28.57;21.30;;;10.90;1.00;;;;;;5021776;28;20495;-78
2023/03/22 00:27:50;;;;;;;25.10;21.67;;;10.90;1.00;;;;;;5012741;28;20894;-80
2023/03/22 00:30:18;;;;;;;28.30;22.00;;;10.90;1.00;;;;;;5002539;28;20565;-79
2023/03/22 00:32:46;;;;;;;29.87;22.93;;;11.00;1.00;;;;;;5006146;28;21597;-78
2023/03/22 00:35:13;;;;;;;27.63;21.77;;;11.00;1.00;;;;;;5005730;28;21150;-78
2023/03/22 00:37:41;;;;;;;29.10;20.90;;;11.00;1.00;;;;;;5007450;28;20438;-80
2023/03/22 00:40:14;;;;;;;27.57;21.23;;;11.00;1.00;;;;;;5007995;28;20455;-79
2023/03/22 00:42:41;;;;;;;27.70;21.00;;;11.00;1.00;;;;;;5008851;28;20466;-80
2023/03/22 00:45:26;;;;;;;27.23;21.83;;;11.10;1.00;;;;;;5023465;28;21377;-80
2023/03/22 00:47:55;;;;;;;25.83;20.50;;;11.10;1.00;;;;;;5013031;28;20467;-79
2023/03/22 00:50:23;;;;;;;29.50;22.20;;;11.00;1.00;;;;;;5009465;28;20442;-80
2023/03/22 00:52:52;;;;;;;26.67;20.80;;;10.90;1.00;;;;;;5007647;28;20454;-80
2023/03/22 00:55:21;;;;;;;26.80;19.87;;;10.90;1.00;;;;;;5004230;28;20462;-79
2023/03/22 00:57:48;;;;;;;28.20;19.30;;;10.90;1.00;;;;;;5008724;28;20459;-79
2023/03/22 01:00:16;;;;;;;24.73;20.10;;;11.00;1.00;;;;;;4989052;28;20474;-79
2023/03/22 01:02:43;;;;;;;27.07;19.07;;;11.00;1.00;;;;;;5008513;28;20455;-78
2023/03/22 01:05:14;;;;;;;25.27;19.60;;;11.00;1.00;;;;;;5008437;28;20462;-79
2023/03/22 01:07:42;;;;;;;27.10;18.47;;;11.00;1.00;;;;;;4986239;28;20450;-79
2023/03/22 01:10:10;;;;;;;24.17;18.17;;;11.00;1.00;;;;;;5004411;28;20515;-78
2023/03/22 01:12:42;;;;;;;23.30;19.50;;;11.00;1.00;;;;;;4998236;28;20478;-78
2023/03/22 01:15:13;;;;;;;24.87;19.10;;;11.00;1.00;;;;;;4999379;28;20499;-79
2023/03/22 01:17:42;;;;;;;27.87;19.80;;;10.90;1.00;;;;;;4984264;28;20489;-78
2023/03/22 01:20:10;;;;;;;23.17;18.00;;;10.80;1.00;;;;;;4993042;28;20489;-78
2023/03/22 01:22:37;;;;;;;24.60;19.47;;;10.80;1.00;;;;;;4997921;28;20537;-78
2023/03/22 01:25:04;;;;;;;25.57;19.57;;;10.80;1.00;;;;;;5002733;28;20458;-79
2023/03/22 01:27:31;;;;;;;25.77;19.37;;;10.90;1.00;;;;;;4998391;28;21006;-79
2023/03/22 01:30:00;;;;;;;23.77;18.13;;;10.80;1.00;;;;;;5000839;28;20478;-79
2023/03/22 01:32:27;;;;;;;25.50;22.07;;;10.70;1.00;;;;;;5001152;28;20466;-78
2023/03/22 01:34:54;;;;;;;26.57;20.57;;;10.70;1.00;;;;;;4994241;28;20596;-78
2023/03/22 01:37:26;;;;;;;28.17;20.47;;;10.70;1.00;;;;;;4998760;28;20534;-79
2023/03/22 01:39:54;;;;;;;27.93;19.67;;;10.80;1.00;;;;;;5005281;28;20498;-79
2023/03/22 01:42:22;;;;;;;27.40;20.87;;;10.70;1.00;;;;;;4998358;28;20493;-78
2023/03/22 01:45:35;;;;;;;26.60;20.23;;;10.70;1.00;;;;;;5002429;28;20573;-79
2023/03/22 01:48:07;;;;;;;25.03;19.83;;;10.60;1.00;;;;;;4943474;28;20482;-80
2023/03/22 01:50:36;;;;;;;28.13;20.83;;;10.60;1.00;;;;;;5001037;28;20557;-80
2023/03/22 01:53:05;;;;;;;23.27;17.73;;;10.60;1.00;;;;;;4985605;28;20593;-79
2023/03/22 01:55:33;;;;;;;25.60;19.47;;;10.60;1.00;;;;;;5004964;28;20462;-80
2023/03/22 01:58:04;;;;;;;27.97;18.63;;;10.60;1.00;;;;;;4998161;28;20490;-79
2023/03/22 02:00:33;;;;;;;29.23;19.93;;;10.60;1.00;;;;;;5000378;28;20470;-77
2023/03/22 02:03:00;;;;;;;27.40;20.07;;;10.60;1.00;;;;;;5000660;28;20481;-77
2023/03/22 02:05:30;;;;;;;25.80;19.90;;;10.70;1.00;;;;;;4995511;28;20723;-77
2023/03/22 02:07:57;;;;;;;24.43;18.90;;;10.70;1.00;;;;;;4996695;28;20488;-77
2023/03/22 02:10:27;;;;;;;25.03;19.87;;;10.70;1.00;;;;;;4998957;28;21091;-77
2023/03/22 02:13:27;;;;;;;25.10;19.23;;;10.80;1.00;;;;;;4995956;28;20557;-77
2023/03/22 02:16:07;;;;;;;26.30;19.30;;;10.70;1.00;;;;;;4995298;28;20467;-76
2023/03/22 02:18:46;;;;;;;25.93;18.17;;;10.70;1.00;;;;;;5004096;28;20473;-76
2023/03/22 02:21:42;;;;;;;27.43;19.00;;;10.60;1.00;;;;;;5004588;28;20592;-78
2023/03/22 02:24:45;;;;;;;24.73;19.00;;;10.50;1.00;;;;;;5000610;28;20466;-77
2023/03/22 02:27:47;;;;;;;28.30;19.67;;;10.50;1.00;;;;;;4998507;28;20473;-76
2023/03/22 02:30:39;;;;;;;27.70;19.70;;;10.40;1.00;;;;;;5000578;28;21133;-76
2023/03/22 02:33:32;;;;;;;25.70;18.60;;;10.40;1.00;;;;;;4998904;28;20474;-76
2023/03/22 02:36:18;;;;;;;27.60;18.77;;;10.40;1.00;;;;;;4993750;28;20493;-77
2023/03/22 02:39:07;;;;;;;24.67;19.33;;;10.40;1.00;;;;;;5004979;28;20478;-77
2023/03/22 02:41:47;;;;;;;27.07;19.50;;;10.40;1.00;;;;;;5000213;28;20513;-77
2023/03/22 02:44:26;;;;;;;25.03;19.03;;;10.30;1.00;;;;;;5002645;28;20474;-77
2023/03/22 02:47:01;;;;;;;26.60;18.90;;;10.40;1.00;;;;;;5003637;28;20880;-77
2023/03/22 02:49:37;;;;;;;25.00;18.80;;;10.40;1.00;;;;;;5003031;28;20653;-77
2023/03/22 02:52:16;;;;;;;24.63;18.97;;;10.40;1.00;;;;;;5006013;28;20466;-76
2023/03/22 02:54:50;;;;;;;25.23;17.87;;;10.40;1.00;;;;;;5007618;28;21009;-77
2023/03/22 02:57:23;;;;;;;25.83;20.03;;;10.30;1.00;;;;;;5003391;28;20640;-77
2023/03/22 02:59:53;;;;;;;24.20;18.70;;;10.20;1.00;;;;;;4999881;28;20553;-77
2023/03/22 03:02:22;;;;;;;27.30;19.37;;;10.20;1.00;;;;;;4994084;28;20517;-77
2023/03/22 03:04:52;;;;;;;26.00;19.20;;;10.10;1.00;;;;;;4999937;28;20478;-78
2023/03/22 03:07:22;;;;;;;28.07;19.53;;;10.10;1.00;;;;;;5002828;28;20467;-78
2023/03/22 03:09:51;;;;;;;25.30;18.53;;;10.00;1.00;;;;;;5001740;28;21279;-77
2023/03/22 03:12:20;;;;;;;26.10;19.93;;;10.00;1.00;;;;;;5002444;28;20492;-77
2023/03/22 03:14:47;;;;;;;25.30;18.77;;;9.90;1.00;;;;;;5002189;28;20564;-78
2023/03/22 03:17:25;;;;;;;25.20;18.60;;;9.80;1.00;;;;;;5000449;28;20515;-77
2023/03/22 03:20:06;;;;;;;26.83;19.10;;;9.80;1.00;;;;;;5002230;28;20478;-77
2023/03/22 03:22:46;;;;;;;26.90;21.10;;;9.70;1.00;;;;;;4999708;28;20461;-77
2023/03/22 03:25:22;;;;;;;24.53;19.70;;;9.70;1.00;;;;;;5003976;28;20470;-79
2023/03/22 03:27:57;;;;;;;27.07;18.50;;;9.70;1.00;;;;;;5000403;28;20470;-77
2023/03/22 03:30:29;;;;;;;26.63;19.90;;;9.70;1.00;;;;;;4997471;28;20473;-78
2023/03/22 03:33:00;;;;;;;25.67;19.40;;;9.60;1.00;;;;;;4998565;28;20481;-77
2023/03/22 03:35:36;;;;;;;24.87;19.00;;;9.60;1.00;;;;;;5003424;28;20561;-77
2023/03/22 03:38:08;;;;;;;25.13;17.97;;;9.50;1.00;;;;;;4986672;28;20489;-77
2023/03/22 03:40:40;;;;;;;24.60;17.80;;;9.50;1.00;;;;;;5002328;28;20462;-78
2023/03/22 03:43:08;;;;;;;24.83;17.47;;;9.50;1.00;;;;;;5000057;28;20623;-77
2023/03/22 03:45:37;;;;;;;22.90;17.90;;;9.40;1.00;;;;;;5000095;28;20482;-78
2023/03/22 03:48:07;;;;;;;27.50;18.33;;;9.40;1.00;;;;;;5000994;28;20454;-77
2023/03/22 03:50:36;;;;;;;26.93;18.60;;;9.30;1.00;;;;;;4995501;28;20554;-77
2023/03/22 03:53:03;;;;;;;25.30;16.30;;;9.40;1.00;;;;;;5003348;28;20471;-77
2023/03/22 03:55:34;;;;;;;26.10;18.47;;;9.40;1.00;;;;;;5001921;28;20567;-78
2023/03/22 03:58:02;;;;;;;30.20;18.23;;;9.40;1.00;;;;;;4999753;28;20970;-77
2023/03/22 04:00:29;;;;;;;26.00;18.40;;;9.40;1.00;;;;;;4998852;28;20909;-76
2023/03/22 04:02:56;;;;;;;35.30;25.23;;;9.40;1.00;;;;;;5005512;28;20470;-77
2023/03/22 04:05:23;;;;;;;24.07;18.13;;;9.40;1.00;;;;;;4996425;28;20534;-77
2023/03/22 04:07:50;;;;;;;26.20;18.87;;;9.40;1.00;;;;;;4995543;28;20533;-77
2023/03/22 04:10:17;;;;;;;25.87;17.57;;;9.50;1.00;;;;;;5001399;28;20513;-78
2023/03/22 04:12:44;;;;;;;25.40;17.50;;;9.50;1.00;;;;;;4998964;28;20423;-78
2023/03/22 04:15:14;;;;;;;29.70;18.00;;;9.60;1.00;;;;;;5000873;28;20474;-78
2023/03/22 04:17:41;;;;;;;26.53;18.20;;;9.70;1.00;;;;;;5002411;28;20537;-78
2023/03/22 04:20:11;;;;;;;26.47;17.20;;;9.80;1.00;;;;;;4999110;28;20454;-77
2023/03/22 04:22:39;;;;;;;24.40;17.43;;;9.80;1.00;;;;;;5000039;28;20423;-78
2023/03/22 04:25:10;;;;;;;24.73;17.57;;;9.90;1.00;;;;;;5003449;28;20496;-76
2023/03/22 04:27:37;;;;;;;25.40;17.87;;;9.80;1.00;;;;;;5003520;28;20455;-77
2023/03/22 04:30:05;;;;;;;23.20;18.83;;;9.70;1.00;;;;;;4993415;28;20469;-78
2023/03/22 04:32:34;;;;;;;24.57;18.87;;;9.70;1.00;;;;;;4999669;28;20550;-76
2023/03/22 04:35:01;;;;;;;25.77;18.20;;;9.80;1.00;;;;;;5001037;28;20507;-78
2023/03/22 04:37:30;;;;;;;25.23;19.20;;;9.80;1.00;;;;;;5002936;28;20545;-77
2023/03/22 04:39:57;;;;;;;23.20;17.30;;;9.70;1.00;;;;;;5001171;28;20467;-77
2023/03/22 04:42:25;;;;;;;27.50;19.53;;;9.80;1.00;;;;;;5005066;28;20970;-77
2023/03/22 04:44:52;;;;;;;26.60;19.60;;;9.70;1.00;;;;;;5003090;28;20479;-77
2023/03/22 04:47:19;;;;;;;28.27;20.77;;;9.60;1.00;;;;;;5002334;28;20458;-77
2023/03/22 04:49:48;;;;;;;36.33;23.73;;;9.60;1.00;;;;;;5002396;28;21069;-78
2023/03/22 04:52:15;;;;;;;31.83;22.30;;;9.50;1.00;;;;;;4999248;28;20539;-77
2023/03/22 04:54:42;;;;;;;32.57;23.90;;;9.50;1.00;;;;;;5002233;28;20444;-79
2023/03/22 04:57:09;;;;;;;30.60;22.60;;;9.40;1.00;;;;;;5002001;28;20606;-79
2023/03/22 04:59:36;;;;;;;30.10;22.90;;;9.40;1.00;;;;;;5000213;28;20565;-78
2023/03/22 05:02:03;;;;;;;32.30;22.17;;;9.40;1.00;;;;;;4996967;28;21000;-78
2023/03/22 05:04:30;;;;;;;31.10;22.40;;;9.40;1.00;;;;;;4988289;28;20506;-78
2023/03/22 05:06:58;;;;;;;32.60;22.60;;;9.30;1.00;;;;;;4995135;28;20938;-76
2023/03/22 05:09:25;;;;;;;27.43;21.10;;;9.30;1.00;;;;;;5000160;28;20458;-77
2023/03/22 05:11:55;;;;;;;29.17;21.73;;;9.30;1.00;;;;;;5001338;28;20477;-76
2023/03/22 05:14:22;;;;;;;36.27;22.97;;;9.30;1.00;;;;;;5001091;28;20574;-78
2023/03/22 05:16:49;;;;;;;35.33;22.50;;;9.40;1.00;;;;;;4995982;28;20464;-77
2023/03/22 05:19:16;;;;;;;28.80;21.40;;;9.50;1.00;;;;;;4993212;28;20481;-77
2023/03/22 05:21:44;;;;;;;30.17;22.40;;;9.40;1.00;;;;;;4984694;28;20891;-77
2023/03/22 05:24:12;;;;;;;25.70;20.93;;;9.30;1.00;;;;;;5000912;28;20521;-77
2023/03/22 05:26:41;;;;;;;29.17;20.33;;;9.40;1.00;;;;;;4997462;28;20484;-77
2023/03/22 05:29:09;;;;;;;26.33;19.97;;;9.40;1.00;;;;;;4995244;28;20458;-77
2023/03/22 05:31:36;;;;;;;32.40;21.67;;;9.40;1.00;;;;;;4997454;28;20470;-78
2023/03/22 05:34:03;;;;;;;27.80;19.23;;;9.50;1.00;;;;;;4992361;28;20470;-79
2023/03/22 05:36:30;;;;;;;29.40;19.80;;;9.50;1.00;;;;;;4981448;28;20453;-78
2023/03/22 05:38:59;;;;;;;29.20;20.30;;;9.50;1.00;;;;;;4982344;28;20463;-78
2023/03/22 05:41:30;;;;;;;29.23;21.10;;;9.50;1.00;;;;;;5000551;28;20466;-78
2023/03/22 05:43:58;;;;;;;27.77;18.87;;;9.50;1.00;;;;;;4987654;28;20553;-78
2023/03/22 05:46:25;;;;;;;27.90;19.20;;;9.50;1.00;;;;;;4993197;28;20472;-78
2023/03/22 05:48:54;;;;;;;24.13;19.40;;;9.60;1.00;;;;;;4995159;28;20482;-78
2023/03/22 05:51:24;;;;;;;28.70;19.63;;;9.70;1.00;;;;;;4999878;28;20457;-78
2023/03/22 05:53:52;;;;;;;29.63;20.30;;;9.70;1.00;;;;;;4981108;28;20600;-78
2023/03/22 05:56:24;;;;;;;28.83;20.33;;;9.60;1.00;;;;;;4997102;28;21057;-78
2023/03/22 05:58:53;;;;;;;28.90;21.13;;;9.70;1.00;;;;;;4983042;28;20546;-77
2023/03/22 06:01:20;;;;;;;25.73;18.53;;;9.70;1.00;;;;;;4999205;28;20562;-77
2023/03/22 06:03:47;;;;;;;25.80;19.60;;;9.70;1.00;;;;;;4997642;28;20470;-78
2023/03/22 06:06:14;;;;;;;24.80;18.93;;;9.70;1.00;;;;;;4997601;28;20470;-77
2023/03/22 06:08:41;;;;;;;25.93;19.40;;;9.70;1.00;;;;;;4998045;28;20458;-76
2023/03/22 06:11:11;;;;;;;27.60;18.97;;;9.80;1.00;;;;;;4999849;28;20463;-77
2023/03/22 06:13:38;;;;;;;25.97;18.77;;;9.70;1.00;;;;;;4996336;28;22174;-78
2023/03/22 06:16:07;;;;;;;25.40;19.57;;;9.70;1.00;;;;;;5001915;28;20453;-77
2023/03/22 06:18:34;;;;;;;26.33;20.40;;;9.70;1.00;;;;;;4998849;28;20478;-78
2023/03/22 06:21:03;;;;;;;24.23;18.00;;;9.90;1.00;;;;;;4999930;28;21094;-79
2023/03/22 06:23:32;;;;;;;27.50;19.30;;;10.00;1.00;;;;;;4998276;28;20539;-77
2023/03/22 06:25:59;;;;;;;25.90;17.90;;;10.10;1.00;;;;;;4998680;28;20546;-78
2023/03/22 06:28:28;;;;;;;26.20;19.00;;;10.10;1.00;;;;;;4997977;28;20473;-78
2023/03/22 06:30:55;;;;;;;31.97;20.73;;;10.10;1.00;;;;;;4993883;28;20481;-79
2023/03/22 06:33:24;;;;;;;25.00;19.00;;;10.20;1.00;;;;;;4998650;28;20504;-78
2023/03/22 06:35:51;;;;;;;28.87;22.33;;;10.30;1.00;;;;;;5005125;28;20553;-78
2023/03/22 06:38:18;;;;;;;27.57;20.20;;;10.40;1.00;;;;;;5002851;28;20812;-78
2023/03/22 06:40:45;;;;;;;31.03;22.07;;;10.40;1.00;;;;;;5003339;28;20509;-77
2023/03/22 06:43:13;;;;;;;25.17;18.47;;;10.50;1.00;;;;;;5004220;28;20435;-77
2023/03/22 06:45:40;;;;;;;29.10;20.67;;;10.60;1.00;;;;;;5004552;28;20556;-78
2023/03/22 06:48:07;;;;;;;25.20;19.13;;;10.60;1.00;;;;;;5007255;28;20544;-78
2023/03/22 06:50:37;;;;;;;26.47;19.60;;;10.70;1.00;;;;;;5002992;28;20546;-78
2023/03/22 06:53:04;;;;;;;27.47;19.47;;;10.70;1.00;;;;;;5002884;28;20466;-78
2023/03/22 06:55:36;;;;;;;25.27;18.83;;;10.70;1.00;;;;;;4995554;28;20458;-76
2023/03/22 06:58:06;;;;;;;35.27;28.13;;;10.70;1.00;;;;;;4996590;28;20557;-78
2023/03/22 07:00:34;;;;;;;26.23;18.30;;;10.70;1.00;;;;;;4999125;28;20467;-77
2023/03/22 07:03:03;;;;;;;25.13;17.40;;;10.70;1.00;;;;;;4992196;28;20553;-76
2023/03/22 07:05:31;;;;;;;22.53;18.23;;;10.70;1.00;;;;;;4996773;28;20457;-78
2023/03/22 07:07:59;;;;;;;25.47;18.23;;;10.80;1.00;;;;;;5002369;28;20462;-78
2023/03/22 07:10:26;;;;;;;25.53;17.67;;;10.80;1.00;;;;;;4998108;28;20580;-78
2023/03/22 07:12:53;;;;;;;24.27;18.23;;;10.80;1.00;;;;;;5002299;28;20589;-77
2023/03/22 07:15:23;;;;;;;24.80;17.90;;;10.90;1.00;;;;;;4998730;28;20505;-78
2023/03/22 07:17:51;;;;;;;22.00;17.00;;;11.10;1.00;;;;;;5000883;28;20473;-77
2023/03/22 07:20:18;;;;;;;20.60;16.00;;;11.10;1.00;;;;;;5001007;28;20556;-77
2023/03/22 07:22:46;;;;;;;23.63;17.80;;;11.00;1.00;;;;;;5002276;28;20549;-78
2023/03/22 07:25:14;;;;;;;21.87;15.90;;;11.10;1.00;;;;;;5006098;28;21075;-77
2023/03/22 07:27:42;;;;;;;24.60;17.67;;;11.30;1.00;;;;;;4999279;28;20853;-78
2023/03/22 07:30:09;;;;;;;21.27;16.00;;;11.40;1.00;;;;;;5006643;28;20459;-77
2023/03/22 07:32:36;;;;;;;20.67;14.57;;;11.50;1.00;;;;;;5004668;28;20586;-78
2023/03/22 07:35:04;;;;;;;20.30;15.37;;;11.50;1.00;;;;;;5003959;28;20464;-78
2023/03/22 07:37:31;;;;;;;19.80;14.10;;;11.50;1.00;;;;;;5007255;28;20483;-77
2023/03/22 07:39:58;;;;;;;20.90;15.30;;;11.50;1.00;;;;;;5003231;28;20463;-77
2023/03/22 07:42:29;;;;;;;23.10;16.07;;;11.70;1.00;;;;;;5003815;28;20462;-77
2023/03/22 07:44:57;;;;;;;21.90;15.03;;;11.70;1.00;;;;;;4980216;28;20467;-77
2023/03/22 07:47:24;;;;;;;21.30;14.70;;;11.80;1.00;;;;;;4998002;28;20516;-77
2023/03/22 07:49:52;;;;;;;19.70;14.43;;;11.90;1.00;;;;;;4999628;28;21164;-78
2023/03/22 07:52:19;;;;;;;18.23;14.03;;;12.00;1.00;;;;;;5000856;28;21220;-78
2023/03/22 07:54:46;;;;;;;20.87;15.00;;;12.00;1.00;;;;;;5002972;28;20474;-77
2023/03/22 07:57:13;;;;;;;21.43;14.10;;;12.10;1.00;;;;;;5005108;28;20609;-77
2023/03/22 07:59:43;;;;;;;22.83;14.70;;;12.30;1.00;;;;;;5007592;28;20471;-78
2023/03/22 08:02:11;;;;;;;26.30;15.47;;;12.50;1.00;;;;;;5005871;28;20467;-77
2023/03/22 08:04:38;;;;;;;31.73;16.00;;;12.70;1.00;;;;;;5004533;28;21171;-83
2023/03/22 08:07:08;;;;;;;23.37;14.40;;;12.70;1.00;;;;;;5009083;28;21292;-83
2023/03/22 08:09:36;;;;;;;23.93;13.33;;;12.90;1.00;;;;;;5003559;28;20568;-83
2023/03/22 08:12:03;;;;;;;25.63;14.67;;;13.10;1.00;;;;;;5012324;28;20472;-83
2023/03/22 08:14:30;;;;;;;20.30;13.80;;;13.20;1.00;;;;;;5005178;28;20602;-83
2023/03/22 08:16:58;;;;;;;24.03;14.03;;;13.10;1.00;;;;;;5009961;28;20483;-82
2023/03/22 08:19:25;;;;;;;18.37;12.57;;;13.20;1.00;;;;;;5012314;28;20427;-84
2023/03/22 08:21:52;;;;;;;17.60;13.40;;;13.40;1.00;;;;;;5008329;28;20466;-82
2023/03/22 08:24:19;;;;;;;25.63;13.83;;;13.40;1.00;;;;;;5008789;28;20566;-81
2023/03/22 08:26:48;;;;;;;20.90;13.87;;;13.50;1.00;;;;;;5006616;28;20431;-82
2023/03/22 08:29:17;;;;;;;24.67;13.67;;;13.60;1.00;;;;;;5004950;28;20464;-84
2023/03/22 08:31:45;;;;;;;18.67;12.90;;;13.90;1.00;;;;;;5007047;28;20608;-83
2023/03/22 08:34:14;;;;;;;17.97;12.17;;;14.20;1.00;;;;;;5008023;28;20491;-83
2023/03/22 08:36:41;;;;;;;17.37;12.43;;;14.40;1.00;;;;;;5004457;28;20466;-83
2023/03/22 08:39:09;;;;;;;27.50;14.13;;;14.20;1.00;;;;;;5008109;28;20588;-83
2023/03/22 08:41:36;;;;;;;28.80;23.03;;;14.10;1.00;;;;;;5014062;28;20493;-83
2023/03/22 08:44:04;;;;;;;20.93;11.70;;;14.40;1.00;;;;;;5007518;28;20489;-83
2023/03/22 08:46:32;;;;;;;18.90;12.10;;;14.40;1.00;;;;;;5012309;28;20487;-83
2023/03/22 08:49:01;;;;;;;15.87;12.30;;;14.60;1.00;;;;;;5007094;28;21214;-84
2023/03/22 08:51:30;;;;;;;16.23;12.30;;;14.50;1.00;;;;;;5007802;28;20526;-84
2023/03/22 08:53:59;;;;;;;20.10;12.00;;;14.40;1.00;;;;;;5004989;28;20457;-83
2023/03/22 08:56:27;;;;;;;17.17;11.83;;;14.60;1.00;;;;;;5007744;28;20470;-82
2023/03/22 08:58:54;;;;;;;14.77;10.70;;;14.60;1.00;;;;;;5007492;28;21209;-84
2023/03/22 09:01:21;;;;;;;22.13;12.87;;;14.70;1.00;;;;;;5009530;28;20460;-83
2023/03/22 09:03:48;;;;;;;20.80;11.93;;;15.10;1.00;;;;;;5006309;28;20605;-85
2023/03/22 09:06:15;;;;;;;17.70;12.23;;;15.10;1.00;;;;;;5000325;28;20467;-82
2023/03/22 09:08:45;;;;;;;14.80;10.97;;;15.40;1.00;;;;;;5001332;28;20627;-83
2023/03/22 09:11:13;;;;;;;29.23;13.10;;;15.40;1.00;;;;;;5004112;28;20481;-84
2023/03/22 09:13:40;;;;;;;15.83;12.63;;;15.30;1.00;;;;;;5003457;28;20523;-83
2023/03/22 09:16:08;;;;;;;15.30;11.50;;;15.30;1.00;;;;;;5004610;28;20466;-84
2023/03/22 09:18:36;;;;;;;17.90;11.70;;;15.40;1.00;;;;;;5007009;28;20818;-82
2023/03/22 09:21:04;;;;;;;19.87;11.40;;;15.70;1.00;;;;;;5002927;28;20480;-82
2023/03/22 09:23:32;;;;;;;14.60;10.33;;;15.90;1.00;;;;;;5009491;28;20554;-83
2023/03/22 09:26:02;;;;;;;12.77;10.03;;;16.10;1.00;;;;;;5010382;28;20921;-82
2023/03/22 09:28:29;;;;;;;13.97;10.80;;;16.50;1.00;;;;;;5006710;28;20526;-84
2023/03/22 09:31:01;;;;;;;17.93;11.43;;;16.60;1.00;;;;;;5010817;28;20530;-83
2023/03/22 09:33:27;;;;;;;13.60;10.40;;;16.90;1.00;;;;;;5012650;28;20466;-83
2023/03/22 09:35:55;;;;;;;13.87;10.30;;;17.40;1.00;;;;;;5007920;28;20562;-82
2023/03/22 09:38:22;;;;;;;14.53;10.50;;;18.00;1.00;;;;;;5006993;28;20517;-83
2023/03/22 09:40:59;;;;;;;21.93;11.37;;;18.20;1.00;;;;;;5008491;28;21023;-84
2023/03/22 09:43:34;;;;;;;18.13;11.30;;;18.40;1.00;;;;;;4991242;28;20455;-84
2023/03/22 09:46:02;;;;;;;12.93;9.73;;;18.50;1.00;;;;;;4997567;28;20610;-84
2023/03/22 09:48:32;;;;;;;14.10;9.77;;;18.80;1.00;;;;;;5009994;28;20675;-82
2023/03/22 09:51:01;;;;;;;15.63;10.00;;;19.00;1.00;;;;;;5010467;28;20464;-83
2023/03/22 09:53:29;;;;;;;18.87;11.83;;;18.60;1.00;;;;;;5012797;28;20436;-84
2023/03/22 09:56:03;;;;;;;17.30;10.70;;;18.50;1.00;;;;;;5010080;28;20460;-83
2023/03/22 09:58:36;;;;;;;15.97;9.53;;;18.90;1.00;;;;;;5009855;28;20560;-83
2023/03/22 10:01:06;;;;;;;12.97;10.30;;;19.20;1.00;;;;;;5007770;28;20531;-84
2023/03/22 10:04:13;;;;;;;17.10;10.43;;;19.80;1.00;;;;;;5007627;28;20515;-83
2023/03/22 10:06:46;;;;;;;15.53;10.53;;;20.10;1.00;;;;;;5012592;28;20457;-83
2023/03/22 10:09:18;;;;;;;13.47;8.93;;;20.30;1.00;;;;;;5009307;28;20554;-85
2023/03/22 10:11:50;;;;;;;12.17;9.07;;;20.40;1.00;;;;;;5010756;28;20550;-84
2023/03/22 10:14:29;;;;;;;12.43;9.47;;;21.20;1.00;;;;;;5005947;28;20479;-85
2023/03/22 10:16:59;;;;;;;13.80;9.40;;;22.20;1.00;;;;;;5009494;28;20461;-83
2023/03/22 10:19:31;;;;;;;11.20;8.77;;;23.50;1.00;;;;;;5007425;28;20480;-83
2023/03/22 10:22:01;;;;;;;13.37;9.50;;;23.80;1.00;;;;;;5008433;28;20475;-85
2023/03/22 10:24:31;;;;;;;11.17;9.40;;;23.00;1.00;;;;;;5006529;28;20465;-84
2023/03/22 10:27:01;;;;;;;12.33;9.43;;;22.10;1.00;;;;;;5006651;28;20560;-82
2023/03/22 10:29:35;;;;;;;20.50;10.87;;;22.00;1.00;;;;;;5008582;28;20935;-84
2023/03/22 10:32:14;;;;;;;11.37;8.90;;;22.00;1.00;;;;;;5003719;28;20550;-84
2023/03/22 10:34:42;;;;;;;13.00;9.70;;;21.60;1.00;;;;;;5007204;28;20510;-84
2023/03/22 10:37:14;;;;;;;13.50;8.27;;;21.40;1.00;;;;;;5009029;28;20585;-82
2023/03/22 10:39:45;;;;;;;15.93;10.00;;;21.20;1.00;;;;;;5009736;28;20511;-84
2023/03/22 10:42:14;;;;;;;14.10;8.77;;;21.10;1.00;;;;;;5012157;28;20508;-85
2023/03/22 10:44:48;;;;;;;12.43;9.00;;;21.30;1.00;;;;;;5013322;28;20459;-86
2023/03/22 10:47:20;;;;;;;12.53;8.57;;;21.60;1.00;;;;;;5012991;28;20959;-85
2023/03/22 10:49:53;;;;;;;12.30;8.43;;;21.70;1.00;;;;;;5013482;28;20977;-86
2023/03/22 10:52:35;;;;;;;11.83;8.43;;;22.00;1.00;;;;;;5006377;28;20562;-85
2023/03/22 10:55:03;;;;;;;11.50;8.20;;;22.20;1.00;;;;;;5010486;28;20451;-86
2023/03/22 10:57:30;;;;;;;11.33;8.43;;;21.30;1.00;;;;;;5005624;28;22376;-84
2023/03/22 10:59:59;;;;;;;12.30;8.60;;;21.00;1.00;;;;;;5004520;28;20466;-84
2023/03/22 11:02:27;;;;;;;10.20;7.63;;;20.80;1.00;;;;;;5002481;28;20506;-84
2023/03/22 11:04:58;;;;;;;10.13;7.70;;;20.40;1.00;;;;;;5004725;28;20466;-84
2023/03/22 11:07:34;;;;;;;10.63;7.20;;;20.10;1.00;;;;;;5005600;28;20480;-84
2023/03/22 11:10:21;;;;;;;10.40;8.30;;;19.90;1.00;;;;;;5006253;28;20430;-85
2023/03/22 11:12:52;;;;;;;15.20;8.93;;;19.40;1.00;;;;;;5005829;28;21358;-84
2023/03/22 11:15:32;;;;;;;12.17;7.63;;;18.80;1.00;;;;;;5006852;28;20446;-86
2023/03/22 11:18:02;;;;;;;11.70;7.70;;;18.40;1.00;;;;;;5009341;28;20677;-88
2023/03/22 11:20:29;;;;;;;8.83;6.70;;;18.70;1.00;;;;;;5014545;28;20490;-84
2023/03/22 11:23:12;;;;;;;9.80;6.37;;;19.10;1.00;;;;;;5015521;28;20465;-84
2023/03/22 11:25:46;;;;;;;10.07;6.97;;;19.30;1.00;;;;;;5019171;28;20457;-82
2023/03/22 11:28:19;;;;;;;9.47;7.10;;;19.70;1.00;;;;;;5012191;28;20446;-86
2023/03/22 11:31:02;;;;;;;11.13;7.27;;;20.00;1.00;;;;;;5009946;28;20464;-87
2023/03/22 11:33:29;;;;;;;10.33;6.77;;;20.20;1.00;;;;;;5010203;28;20728;-88
2023/03/22 11:35:58;;;;;;;10.93;6.90;;;20.00;1.00;;;;;;5012617;28;20447;-82
2023/03/22 11:38:29;;;;;;;9.13;6.10;;;19.60;1.00;;;;;;5014643;28;20485;-85
2023/03/22 11:41:00;;;;;;;10.00;6.93;;;19.40;1.00;;;;;;5015084;28;20885;-84
2023/03/22 11:43:36;;;;;;;8.70;6.30;;;19.40;1.00;;;;;;5006812;28;20516;-85
2023/03/22 11:46:07;;;;;;;12.67;8.40;;;19.10;1.00;;;;;;5013647;28;20527;-84
2023/03/22 11:48:36;;;;;;;8.60;6.33;;;19.00;1.00;;;;;;5009671;28;20474;-84
2023/03/22 11:51:09;;;;;;;9.63;7.03;;;19.20;1.00;;;;;;5003936;28;20530;-86
2023/03/22 11:53:39;;;;;;;11.20;6.97;;;19.10;1.00;;;;;;5015552;28;20528;-87
2023/03/22 11:56:09;;;;;;;10.17;6.70;;;18.90;1.00;;;;;;5015579;28;20473;-83
2023/03/22 11:58:55;;;;;;;8.70;5.80;;;18.80;1.00;;;;;;5012785;28;21052;-86
2023/03/22 12:01:33;;;;;;;8.00;5.77;;;19.30;1.00;;;;;;5010000;28;20478;-83
2023/03/22 12:04:03;;;;;;;7.83;5.00;;;20.30;1.00;;;;;;5012503;28;20646;-84
2023/03/22 12:06:35;;;;;;;7.37;5.23;;;20.60;1.00;;;;;;5013889;28;20458;-84
2023/03/22 12:09:06;;;;;;;8.70;5.93;;;21.00;1.00;;;;;;5017886;28;20491;-86
2023/03/22 12:11:37;;;;;;;10.20;6.07;;;20.90;1.00;;;;;;5011191;28;20464;-84
2023/03/22 12:14:09;;;;;;;7.03;5.50;;;21.70;1.00;;;;;;5019830;28;20477;-87
2023/03/22 12:16:48;;;;;;;6.57;5.20;;;23.90;1.00;;;;;;5014359;28;20456;-88
2023/03/22 12:19:29;;;;;;;7.17;5.23;;;25.70;1.00;;;;;;5016474;28;20551;-86
2023/03/22 12:21:58;;;;;;;12.03;9.43;;;26.00;1.00;;;;;;5014665;28;20464;-87
2023/03/22 12:24:29;;;;;;;6.73;5.90;;;26.10;1.00;;;;;;5012894;28;20471;-84
2023/03/22 12:27:00;;;;;;;6.37;4.53;;;24.10;1.00;;;;;;5013353;28;20459;-86
2023/03/22 12:29:29;;;;;;;6.80;5.00;;;23.80;1.00;;;;;;5014168;28;20898;-84
2023/03/22 12:32:07;;;;;;;6.00;5.07;;;24.70;1.00;;;;;;5011927;28;20463;-86
2023/03/22 12:34:38;;;;;;;9.20;5.33;;;26.40;1.00;;;;;;4999684;28;20466;-88
2023/03/22 12:37:08;;;;;;;8.97;5.03;;;27.00;1.00;;;;;;5014697;28;20850;-84
2023/03/22 12:39:40;;;;;;;7.03;5.50;;;26.40;1.00;;;;;;5013485;28;20556;-87
2023/03/22 12:42:15;;;;;;;6.07;5.00;;;26.50;1.00;;;;;;5010867;28;20461;-86
2023/03/22 12:44:47;;;;;;;9.53;4.70;;;26.40;1.00;;;;;;5016672;28;20471;-84
2023/03/22 12:47:22;;;;;;;6.30;4.70;;;26.40;1.00;;;;;;5011320;28;20602;-87
2023/03/22 12:49:54;;;;;;;7.17;4.90;;;26.10;1.00;;;;;;5011356;28;20471;-88
2023/03/22 12:52:29;;;;;;;6.67;4.53;;;27.00;1.00;;;;;;5009532;28;20490;-85
2023/03/22 12:54:58;;;;;;;7.67;4.50;;;27.60;1.00;;;;;;5016292;28;20452;-86
2023/03/22 12:57:26;;;;;;;7.43;4.80;;;28.00;1.00;;;;;;5009302;28;20456;-85
2023/03/22 12:59:56;;;;;;;7.00;4.70;;;28.60;1.00;;;;;;5010447;28;20438;-88